sensor_id;sensor_type;location;lat;lon;timestamp;P1;durP1;ratioP1;P2;durP2;ratioP2
21729;SDS011;11027;51.030;13.812;2022-08-20T00:00:50;26.73;;;20.83;;
21729;SDS011;11027;51.030;13.812;2022-08-20T00:03:19;27.30;;;20.38;;
21729;SDS011;11027;51.030;13.812;2022-08-20T00:05:50;26.95;;;20.40;;
21729;SDS011;11027;51.030;13.812;2022-08-20T00:08:21;24.75;;;20.17;;
21729;SDS011;11027;51.030;13.812;2022-08-20T00:10:47;27.13;;;20.30;;
21729;SDS011;11027;51.030;13.812;2022-08-20T00:13:16;29.00;;;20.55;;
21729;SDS011;11027;51.030;13.812;2022-08-20T00:15:47;27.38;;;20.35;;
21729;SDS011;11027;51.030;13.812;2022-08-20T00:18:13;23.67;;;19.30;;
21729;SDS011;11027;51.030;13.812;2022-08-20T00:20:40;22.95;;;18.42;;
21729;SDS011;11027;51.030;13.812;2022-08-20T00:23:09;23.35;;;18.48;;
21729;SDS011;11027;51.030;13.812;2022-08-20T00:25:35;24.23;;;19.13;;
21729;SDS011;11027;51.030;13.812;2022-08-20T00:28:00;26.20;;;19.52;;
21729;SDS011;11027;51.030;13.812;2022-08-20T00:30:27;23.85;;;19.15;;
21729;SDS011;11027;51.030;13.812;2022-08-20T00:32:56;22.67;;;18.75;;
21729;SDS011;11027;51.030;13.812;2022-08-20T00:35:26;26.05;;;20.42;;
21729;SDS011;11027;51.030;13.812;2022-08-20T00:37:54;29.55;;;19.67;;
21729;SDS011;11027;51.030;13.812;2022-08-20T00:40:21;25.30;;;19.08;;
21729;SDS011;11027;51.030;13.812;2022-08-20T00:42:50;28.30;;;19.95;;
21729;SDS011;11027;51.030;13.812;2022-08-20T00:45:19;22.90;;;18.95;;
21729;SDS011;11027;51.030;13.812;2022-08-20T00:47:45;27.67;;;19.85;;
21729;SDS011;11027;51.030;13.812;2022-08-20T00:50:14;27.02;;;21.52;;
21729;SDS011;11027;51.030;13.812;2022-08-20T00:52:44;25.63;;;19.98;;
21729;SDS011;11027;51.030;13.812;2022-08-20T00:55:13;27.42;;;21.17;;
21729;SDS011;11027;51.030;13.812;2022-08-20T00:57:42;27.95;;;22.15;;
21729;SDS011;11027;51.030;13.812;2022-08-20T01:00:15;25.33;;;20.85;;
21729;SDS011;11027;51.030;13.812;2022-08-20T01:02:42;27.75;;;22.15;;
21729;SDS011;11027;51.030;13.812;2022-08-20T01:05:08;31.05;;;22.10;;
21729;SDS011;11027;51.030;13.812;2022-08-20T01:07:34;29.15;;;22.02;;
21729;SDS011;11027;51.030;13.812;2022-08-20T01:10:09;28.45;;;22.23;;
21729;SDS011;11027;51.030;13.812;2022-08-20T01:12:41;24.55;;;20.67;;
21729;SDS011;11027;51.030;13.812;2022-08-20T01:15:10;32.67;;;23.48;;
21729;SDS011;11027;51.030;13.812;2022-08-20T01:17:40;30.95;;;23.55;;
21729;SDS011;11027;51.030;13.812;2022-08-20T01:20:11;28.33;;;23.13;;
21729;SDS011;11027;51.030;13.812;2022-08-20T01:22:40;32.72;;;24.15;;
21729;SDS011;11027;51.030;13.812;2022-08-20T01:28:19;29.77;;;24.38;;
21729;SDS011;11027;51.030;13.812;2022-08-20T01:30:48;32.08;;;23.65;;
21729;SDS011;11027;51.030;13.812;2022-08-20T01:33:13;33.03;;;25.25;;
21729;SDS011;11027;51.030;13.812;2022-08-20T01:35:41;33.03;;;25.83;;
21729;SDS011;11027;51.030;13.812;2022-08-20T01:38:07;31.23;;;25.45;;
21729;SDS011;11027;51.030;13.812;2022-08-20T01:43:36;31.35;;;25.85;;
21729;SDS011;11027;51.030;13.812;2022-08-20T01:46:02;35.55;;;26.45;;
21729;SDS011;11027;51.030;13.812;2022-08-20T01:48:27;37.20;;;27.58;;
21729;SDS011;11027;51.030;13.812;2022-08-20T01:51:04;38.13;;;27.25;;
21729;SDS011;11027;51.030;13.812;2022-08-20T01:53:33;36.67;;;26.55;;
21729;SDS011;11027;51.030;13.812;2022-08-20T01:56:01;34.35;;;27.58;;
21729;SDS011;11027;51.030;13.812;2022-08-20T01:58:28;36.15;;;27.85;;
21729;SDS011;11027;51.030;13.812;2022-08-20T02:00:56;36.65;;;27.95;;
21729;SDS011;11027;51.030;13.812;2022-08-20T02:03:22;38.63;;;29.52;;
21729;SDS011;11027;51.030;13.812;2022-08-20T02:05:47;38.40;;;28.00;;
21729;SDS011;11027;51.030;13.812;2022-08-20T02:08:13;38.72;;;29.38;;
21729;SDS011;11027;51.030;13.812;2022-08-20T02:10:39;38.90;;;29.15;;
21729;SDS011;11027;51.030;13.812;2022-08-20T02:13:05;39.55;;;29.55;;
21729;SDS011;11027;51.030;13.812;2022-08-20T02:15:33;39.45;;;29.83;;
21729;SDS011;11027;51.030;13.812;2022-08-20T02:18:01;41.53;;;30.45;;
21729;SDS011;11027;51.030;13.812;2022-08-20T02:20:29;47.97;;;31.35;;
21729;SDS011;11027;51.030;13.812;2022-08-20T02:22:56;45.28;;;30.77;;
21729;SDS011;11027;51.030;13.812;2022-08-20T02:25:24;37.20;;;29.33;;
21729;SDS011;11027;51.030;13.812;2022-08-20T02:27:53;41.65;;;31.35;;
21729;SDS011;11027;51.030;13.812;2022-08-20T02:30:21;47.15;;;31.95;;
21729;SDS011;11027;51.030;13.812;2022-08-20T02:35:16;44.37;;;31.83;;
21729;SDS011;11027;51.030;13.812;2022-08-20T02:37:42;47.13;;;32.67;;
21729;SDS011;11027;51.030;13.812;2022-08-20T02:40:11;49.20;;;33.97;;
21729;SDS011;11027;51.030;13.812;2022-08-20T02:42:39;46.40;;;34.40;;
21729;SDS011;11027;51.030;13.812;2022-08-20T02:45:07;49.88;;;34.05;;
21729;SDS011;11027;51.030;13.812;2022-08-20T02:47:37;44.88;;;32.38;;
21729;SDS011;11027;51.030;13.812;2022-08-20T02:50:04;54.40;;;36.42;;
21729;SDS011;11027;51.030;13.812;2022-08-20T02:52:30;51.30;;;36.38;;
21729;SDS011;11027;51.030;13.812;2022-08-20T02:54:56;51.25;;;34.80;;
21729;SDS011;11027;51.030;13.812;2022-08-20T02:57:21;51.70;;;35.47;;
21729;SDS011;11027;51.030;13.812;2022-08-20T02:59:46;50.42;;;35.42;;
21729;SDS011;11027;51.030;13.812;2022-08-20T03:02:13;50.30;;;35.85;;
21729;SDS011;11027;51.030;13.812;2022-08-20T03:04:39;50.53;;;35.30;;
21729;SDS011;11027;51.030;13.812;2022-08-20T03:07:05;55.30;;;37.28;;
21729;SDS011;11027;51.030;13.812;2022-08-20T03:09:31;56.30;;;36.55;;
21729;SDS011;11027;51.030;13.812;2022-08-20T03:11:57;53.80;;;36.13;;
21729;SDS011;11027;51.030;13.812;2022-08-20T03:14:23;52.97;;;36.40;;
21729;SDS011;11027;51.030;13.812;2022-08-20T03:16:48;48.75;;;35.08;;
21729;SDS011;11027;51.030;13.812;2022-08-20T03:19:13;51.97;;;35.10;;
21729;SDS011;11027;51.030;13.812;2022-08-20T03:21:39;51.10;;;34.78;;
21729;SDS011;11027;51.030;13.812;2022-08-20T03:24:04;52.35;;;35.75;;
21729;SDS011;11027;51.030;13.812;2022-08-20T03:26:30;49.63;;;34.17;;
21729;SDS011;11027;51.030;13.812;2022-08-20T03:28:55;54.42;;;35.10;;
21729;SDS011;11027;51.030;13.812;2022-08-20T03:31:21;51.53;;;34.50;;
21729;SDS011;11027;51.030;13.812;2022-08-20T03:33:46;47.30;;;33.42;;
21729;SDS011;11027;51.030;13.812;2022-08-20T03:36:11;48.83;;;34.28;;
21729;SDS011;11027;51.030;13.812;2022-08-20T03:38:37;46.30;;;32.90;;
21729;SDS011;11027;51.030;13.812;2022-08-20T03:41:03;49.53;;;33.17;;
21729;SDS011;11027;51.030;13.812;2022-08-20T03:43:29;47.92;;;32.83;;
21729;SDS011;11027;51.030;13.812;2022-08-20T03:45:55;47.22;;;33.10;;
21729;SDS011;11027;51.030;13.812;2022-08-20T03:48:20;53.30;;;34.55;;
21729;SDS011;11027;51.030;13.812;2022-08-20T03:50:46;49.50;;;33.15;;
21729;SDS011;11027;51.030;13.812;2022-08-20T03:53:12;51.83;;;34.20;;
21729;SDS011;11027;51.030;13.812;2022-08-20T03:55:39;50.97;;;33.45;;
21729;SDS011;11027;51.030;13.812;2022-08-20T03:58:06;47.15;;;32.15;;
21729;SDS011;11027;51.030;13.812;2022-08-20T04:00:38;41.55;;;30.65;;
21729;SDS011;11027;51.030;13.812;2022-08-20T04:03:06;40.90;;;29.50;;
21729;SDS011;11027;51.030;13.812;2022-08-20T04:05:33;39.85;;;28.13;;
21729;SDS011;11027;51.030;13.812;2022-08-20T04:08:01;37.33;;;26.67;;
21729;SDS011;11027;51.030;13.812;2022-08-20T04:10:28;37.30;;;27.42;;
21729;SDS011;11027;51.030;13.812;2022-08-20T04:12:54;33.95;;;25.35;;
21729;SDS011;11027;51.030;13.812;2022-08-20T04:15:19;35.50;;;26.50;;
21729;SDS011;11027;51.030;13.812;2022-08-20T04:17:46;33.58;;;25.17;;
21729;SDS011;11027;51.030;13.812;2022-08-20T04:20:14;34.40;;;24.73;;
21729;SDS011;11027;51.030;13.812;2022-08-20T04:22:46;31.13;;;23.85;;
21729;SDS011;11027;51.030;13.812;2022-08-20T04:25:12;31.38;;;23.25;;
21729;SDS011;11027;51.030;13.812;2022-08-20T04:27:37;27.48;;;20.73;;
21729;SDS011;11027;51.030;13.812;2022-08-20T04:30:08;24.90;;;19.27;;
21729;SDS011;11027;51.030;13.812;2022-08-20T04:32:35;22.15;;;17.55;;
21729;SDS011;11027;51.030;13.812;2022-08-20T04:35:05;24.05;;;18.58;;
21729;SDS011;11027;51.030;13.812;2022-08-20T04:37:32;16.75;;;14.32;;
21729;SDS011;11027;51.030;13.812;2022-08-20T04:40:02;17.38;;;14.10;;
21729;SDS011;11027;51.030;13.812;2022-08-20T04:42:47;14.80;;;12.18;;
21729;SDS011;11027;51.030;13.812;2022-08-20T04:45:12;13.18;;;11.35;;
21729;SDS011;11027;51.030;13.812;2022-08-20T04:47:38;11.82;;;9.90;;
21729;SDS011;11027;51.030;13.812;2022-08-20T04:50:03;12.85;;;10.50;;
21729;SDS011;11027;51.030;13.812;2022-08-20T04:52:33;14.70;;;11.00;;
21729;SDS011;11027;51.030;13.812;2022-08-20T04:55:07;14.10;;;10.20;;
21729;SDS011;11027;51.030;13.812;2022-08-20T04:57:34;12.43;;;8.98;;
21729;SDS011;11027;51.030;13.812;2022-08-20T05:00:03;16.10;;;10.35;;
21729;SDS011;11027;51.030;13.812;2022-08-20T05:02:30;10.70;;;8.80;;
21729;SDS011;11027;51.030;13.812;2022-08-20T05:07:28;9.63;;;7.22;;
21729;SDS011;11027;51.030;13.812;2022-08-20T05:09:53;10.50;;;7.30;;
21729;SDS011;11027;51.030;13.812;2022-08-20T05:12:19;9.18;;;6.97;;
21729;SDS011;11027;51.030;13.812;2022-08-20T05:14:44;9.27;;;6.97;;
21729;SDS011;11027;51.030;13.812;2022-08-20T05:17:11;8.82;;;6.30;;
21729;SDS011;11027;51.030;13.812;2022-08-20T05:19:38;6.70;;;5.20;;
21729;SDS011;11027;51.030;13.812;2022-08-20T05:22:05;7.35;;;5.13;;
21729;SDS011;11027;51.030;13.812;2022-08-20T05:24:30;6.10;;;5.03;;
21729;SDS011;11027;51.030;13.812;2022-08-20T05:26:56;7.28;;;6.00;;
21729;SDS011;11027;51.030;13.812;2022-08-20T05:29:24;7.55;;;6.38;;
21729;SDS011;11027;51.030;13.812;2022-08-20T05:31:49;10.80;;;7.57;;
21729;SDS011;11027;51.030;13.812;2022-08-20T05:34:14;10.43;;;7.65;;
21729;SDS011;11027;51.030;13.812;2022-08-20T05:36:41;10.80;;;9.27;;
21729;SDS011;11027;51.030;13.812;2022-08-20T05:39:09;14.27;;;9.30;;
21729;SDS011;11027;51.030;13.812;2022-08-20T05:41:37;14.95;;;11.52;;
21729;SDS011;11027;51.030;13.812;2022-08-20T05:44:40;14.88;;;12.10;;
21729;SDS011;11027;51.030;13.812;2022-08-20T05:47:23;17.13;;;13.20;;
21729;SDS011;11027;51.030;13.812;2022-08-20T05:49:52;16.98;;;13.15;;
21729;SDS011;11027;51.030;13.812;2022-08-20T05:52:26;16.27;;;12.88;;
21729;SDS011;11027;51.030;13.812;2022-08-20T05:54:53;17.58;;;13.93;;
21729;SDS011;11027;51.030;13.812;2022-08-20T05:57:19;21.75;;;14.45;;
21729;SDS011;11027;51.030;13.812;2022-08-20T05:59:45;19.98;;;14.82;;
21729;SDS011;11027;51.030;13.812;2022-08-20T06:02:11;17.83;;;14.35;;
21729;SDS011;11027;51.030;13.812;2022-08-20T06:04:58;20.38;;;14.65;;
21729;SDS011;11027;51.030;13.812;2022-08-20T06:07:23;20.00;;;15.43;;
21729;SDS011;11027;51.030;13.812;2022-08-20T06:09:48;17.92;;;14.63;;
21729;SDS011;11027;51.030;13.812;2022-08-20T06:12:14;20.05;;;15.60;;
21729;SDS011;11027;51.030;13.812;2022-08-20T06:14:40;19.40;;;15.80;;
21729;SDS011;11027;51.030;13.812;2022-08-20T06:17:08;23.73;;;17.17;;
21729;SDS011;11027;51.030;13.812;2022-08-20T06:19:35;26.65;;;18.40;;
21729;SDS011;11027;51.030;13.812;2022-08-20T06:22:02;26.33;;;18.33;;
21729;SDS011;11027;51.030;13.812;2022-08-20T06:24:28;27.60;;;17.85;;
21729;SDS011;11027;51.030;13.812;2022-08-20T06:26:58;25.33;;;17.58;;
21729;SDS011;11027;51.030;13.812;2022-08-20T06:29:24;27.08;;;20.67;;
21729;SDS011;11027;51.030;13.812;2022-08-20T06:31:50;27.17;;;19.02;;
21729;SDS011;11027;51.030;13.812;2022-08-20T06:34:15;30.38;;;20.65;;
21729;SDS011;11027;51.030;13.812;2022-08-20T06:36:42;31.90;;;20.48;;
21729;SDS011;11027;51.030;13.812;2022-08-20T06:39:10;29.52;;;20.65;;
21729;SDS011;11027;51.030;13.812;2022-08-20T06:41:35;30.95;;;21.25;;
21729;SDS011;11027;51.030;13.812;2022-08-20T06:44:00;27.60;;;20.48;;
21729;SDS011;11027;51.030;13.812;2022-08-20T06:46:26;30.77;;;21.30;;
21729;SDS011;11027;51.030;13.812;2022-08-20T06:48:51;30.83;;;22.40;;
21729;SDS011;11027;51.030;13.812;2022-08-20T06:51:16;29.30;;;20.40;;
21729;SDS011;11027;51.030;13.812;2022-08-20T06:53:42;31.83;;;22.20;;
21729;SDS011;11027;51.030;13.812;2022-08-20T06:56:07;28.75;;;20.58;;
21729;SDS011;11027;51.030;13.812;2022-08-20T06:58:33;28.33;;;21.10;;
21729;SDS011;11027;51.030;13.812;2022-08-20T07:00:58;28.90;;;21.40;;
21729;SDS011;11027;51.030;13.812;2022-08-20T07:03:24;34.40;;;24.58;;
21729;SDS011;11027;51.030;13.812;2022-08-20T07:05:50;35.88;;;25.08;;
21729;SDS011;11027;51.030;13.812;2022-08-20T07:08:16;35.60;;;24.60;;
21729;SDS011;11027;51.030;13.812;2022-08-20T07:10:46;34.63;;;25.95;;
21729;SDS011;11027;51.030;13.812;2022-08-20T07:13:12;36.80;;;27.23;;
21729;SDS011;11027;51.030;13.812;2022-08-20T07:15:40;37.65;;;27.63;;
21729;SDS011;11027;51.030;13.812;2022-08-20T07:18:07;38.78;;;28.50;;
21729;SDS011;11027;51.030;13.812;2022-08-20T07:20:34;37.00;;;26.63;;
21729;SDS011;11027;51.030;13.812;2022-08-20T07:23:00;39.03;;;27.42;;
21729;SDS011;11027;51.030;13.812;2022-08-20T07:25:26;39.67;;;27.05;;
21729;SDS011;11027;51.030;13.812;2022-08-20T07:27:57;37.40;;;26.90;;
21729;SDS011;11027;51.030;13.812;2022-08-20T07:30:25;37.90;;;26.92;;
21729;SDS011;11027;51.030;13.812;2022-08-20T07:33:10;39.22;;;28.58;;
21729;SDS011;11027;51.030;13.812;2022-08-20T07:35:38;41.65;;;27.67;;
21729;SDS011;11027;51.030;13.812;2022-08-20T07:38:03;46.22;;;29.80;;
21729;SDS011;11027;51.030;13.812;2022-08-20T07:40:29;41.70;;;29.52;;
21729;SDS011;11027;51.030;13.812;2022-08-20T07:42:57;42.22;;;29.55;;
21729;SDS011;11027;51.030;13.812;2022-08-20T07:45:24;47.22;;;30.63;;
21729;SDS011;11027;51.030;13.812;2022-08-20T07:47:50;41.85;;;29.75;;
21729;SDS011;11027;51.030;13.812;2022-08-20T07:50:18;42.78;;;30.48;;
21729;SDS011;11027;51.030;13.812;2022-08-20T07:52:46;47.70;;;30.77;;
21729;SDS011;11027;51.030;13.812;2022-08-20T07:55:13;40.28;;;29.85;;
21729;SDS011;11027;51.030;13.812;2022-08-20T07:57:40;43.25;;;30.13;;
21729;SDS011;11027;51.030;13.812;2022-08-20T08:00:07;40.67;;;29.50;;
21729;SDS011;11027;51.030;13.812;2022-08-20T08:02:33;46.40;;;31.65;;
21729;SDS011;11027;51.030;13.812;2022-08-20T08:05:00;48.33;;;32.20;;
21729;SDS011;11027;51.030;13.812;2022-08-20T08:07:26;42.90;;;31.50;;
21729;SDS011;11027;51.030;13.812;2022-08-20T08:09:51;42.92;;;30.42;;
21729;SDS011;11027;51.030;13.812;2022-08-20T08:12:18;48.85;;;33.13;;
21729;SDS011;11027;51.030;13.812;2022-08-20T08:14:45;52.35;;;33.55;;
21729;SDS011;11027;51.030;13.812;2022-08-20T08:17:12;50.45;;;33.45;;
21729;SDS011;11027;51.030;13.812;2022-08-20T08:19:43;50.13;;;33.75;;
21729;SDS011;11027;51.030;13.812;2022-08-20T08:22:14;54.78;;;35.67;;
21729;SDS011;11027;51.030;13.812;2022-08-20T08:24:42;54.70;;;37.30;;
21729;SDS011;11027;51.030;13.812;2022-08-20T08:27:09;52.20;;;34.75;;
21729;SDS011;11027;51.030;13.812;2022-08-20T08:29:35;54.60;;;35.80;;
21729;SDS011;11027;51.030;13.812;2022-08-20T08:32:02;48.67;;;34.42;;
21729;SDS011;11027;51.030;13.812;2022-08-20T08:34:29;51.33;;;34.33;;
21729;SDS011;11027;51.030;13.812;2022-08-20T08:36:56;54.72;;;37.20;;
21729;SDS011;11027;51.030;13.812;2022-08-20T08:39:22;53.78;;;36.70;;
21729;SDS011;11027;51.030;13.812;2022-08-20T08:41:48;50.58;;;36.10;;
21729;SDS011;11027;51.030;13.812;2022-08-20T08:44:25;56.85;;;37.00;;
21729;SDS011;11027;51.030;13.812;2022-08-20T08:46:54;48.97;;;34.17;;
21729;SDS011;11027;51.030;13.812;2022-08-20T08:49:37;51.22;;;36.28;;
21729;SDS011;11027;51.030;13.812;2022-08-20T08:52:04;50.50;;;36.42;;
21729;SDS011;11027;51.030;13.812;2022-08-20T08:54:34;52.40;;;35.47;;
21729;SDS011;11027;51.030;13.812;2022-08-20T08:56:59;50.25;;;35.88;;
21729;SDS011;11027;51.030;13.812;2022-08-20T08:59:26;50.22;;;36.33;;
21729;SDS011;11027;51.030;13.812;2022-08-20T09:01:55;51.58;;;36.10;;
21729;SDS011;11027;51.030;13.812;2022-08-20T09:04:22;49.67;;;35.00;;
21729;SDS011;11027;51.030;13.812;2022-08-20T09:07:08;45.25;;;33.80;;
21729;SDS011;11027;51.030;13.812;2022-08-20T09:09:41;46.88;;;33.42;;
21729;SDS011;11027;51.030;13.812;2022-08-20T09:12:09;47.40;;;34.38;;
21729;SDS011;11027;51.030;13.812;2022-08-20T09:14:37;47.05;;;34.00;;
21729;SDS011;11027;51.030;13.812;2022-08-20T09:17:03;45.03;;;34.15;;
21729;SDS011;11027;51.030;13.812;2022-08-20T09:19:29;46.45;;;34.33;;
21729;SDS011;11027;51.030;13.812;2022-08-20T09:21:55;53.85;;;37.63;;
21729;SDS011;11027;51.030;13.812;2022-08-20T09:24:20;65.82;;;41.33;;
21729;SDS011;11027;51.030;13.812;2022-08-20T09:26:45;56.75;;;38.15;;
21729;SDS011;11027;51.030;13.812;2022-08-20T09:29:11;57.50;;;39.05;;
21729;SDS011;11027;51.030;13.812;2022-08-20T09:31:36;56.38;;;36.88;;
21729;SDS011;11027;51.030;13.812;2022-08-20T09:34:01;53.17;;;37.38;;
21729;SDS011;11027;51.030;13.812;2022-08-20T09:36:27;49.70;;;35.28;;
21729;SDS011;11027;51.030;13.812;2022-08-20T09:38:52;47.45;;;34.25;;
21729;SDS011;11027;51.030;13.812;2022-08-20T09:41:18;46.00;;;33.90;;
21729;SDS011;11027;51.030;13.812;2022-08-20T09:43:46;45.88;;;33.53;;
21729;SDS011;11027;51.030;13.812;2022-08-20T09:46:11;47.53;;;32.88;;
21729;SDS011;11027;51.030;13.812;2022-08-20T09:48:36;46.08;;;32.80;;
21729;SDS011;11027;51.030;13.812;2022-08-20T09:51:01;47.40;;;34.55;;
21729;SDS011;11027;51.030;13.812;2022-08-20T09:53:27;46.47;;;33.40;;
21729;SDS011;11027;51.030;13.812;2022-08-20T09:55:54;47.22;;;33.97;;
21729;SDS011;11027;51.030;13.812;2022-08-20T09:58:33;43.55;;;33.03;;
21729;SDS011;11027;51.030;13.812;2022-08-20T10:01:04;46.30;;;33.97;;
21729;SDS011;11027;51.030;13.812;2022-08-20T10:03:32;49.33;;;35.83;;
21729;SDS011;11027;51.030;13.812;2022-08-20T10:05:57;49.17;;;35.00;;
21729;SDS011;11027;51.030;13.812;2022-08-20T10:08:23;46.65;;;35.10;;
21729;SDS011;11027;51.030;13.812;2022-08-20T10:10:49;47.55;;;35.45;;
21729;SDS011;11027;51.030;13.812;2022-08-20T10:13:14;45.47;;;34.58;;
21729;SDS011;11027;51.030;13.812;2022-08-20T10:15:39;50.40;;;35.67;;
21729;SDS011;11027;51.030;13.812;2022-08-20T10:18:04;50.45;;;35.97;;
21729;SDS011;11027;51.030;13.812;2022-08-20T10:20:31;52.75;;;35.92;;
21729;SDS011;11027;51.030;13.812;2022-08-20T10:22:57;50.75;;;36.88;;
21729;SDS011;11027;51.030;13.812;2022-08-20T10:25:23;50.50;;;36.05;;
21729;SDS011;11027;51.030;13.812;2022-08-20T10:27:48;48.53;;;36.22;;
21729;SDS011;11027;51.030;13.812;2022-08-20T10:30:14;51.85;;;35.58;;
21729;SDS011;11027;51.030;13.812;2022-08-20T10:32:39;48.17;;;36.20;;
21729;SDS011;11027;51.030;13.812;2022-08-20T10:35:05;49.42;;;36.88;;
21729;SDS011;11027;51.030;13.812;2022-08-20T10:37:30;46.03;;;35.65;;
21729;SDS011;11027;51.030;13.812;2022-08-20T10:39:56;50.25;;;36.72;;
21729;SDS011;11027;51.030;13.812;2022-08-20T10:42:21;45.53;;;35.38;;
21729;SDS011;11027;51.030;13.812;2022-08-20T10:44:47;48.92;;;35.88;;
21729;SDS011;11027;51.030;13.812;2022-08-20T10:49:39;48.38;;;36.15;;
21729;SDS011;11027;51.030;13.812;2022-08-20T10:52:04;49.28;;;33.67;;
21729;SDS011;11027;51.030;13.812;2022-08-20T10:54:30;51.97;;;37.08;;
21729;SDS011;11027;51.030;13.812;2022-08-20T10:56:59;49.25;;;35.42;;
21729;SDS011;11027;51.030;13.812;2022-08-20T10:59:26;48.50;;;37.22;;
21729;SDS011;11027;51.030;13.812;2022-08-20T11:01:52;53.40;;;38.45;;
21729;SDS011;11027;51.030;13.812;2022-08-20T11:04:17;51.28;;;36.33;;
21729;SDS011;11027;51.030;13.812;2022-08-20T11:06:42;50.33;;;37.75;;
21729;SDS011;11027;51.030;13.812;2022-08-20T11:09:07;50.38;;;37.10;;
21729;SDS011;11027;51.030;13.812;2022-08-20T11:11:33;55.72;;;38.75;;
21729;SDS011;11027;51.030;13.812;2022-08-20T11:13:58;57.47;;;40.08;;
21729;SDS011;11027;51.030;13.812;2022-08-20T11:16:23;53.10;;;38.78;;
21729;SDS011;11027;51.030;13.812;2022-08-20T11:18:48;52.97;;;39.10;;
21729;SDS011;11027;51.030;13.812;2022-08-20T11:21:14;55.45;;;38.58;;
21729;SDS011;11027;51.030;13.812;2022-08-20T11:23:39;46.65;;;36.70;;
21729;SDS011;11027;51.030;13.812;2022-08-20T11:26:04;49.83;;;36.83;;
21729;SDS011;11027;51.030;13.812;2022-08-20T11:28:30;48.30;;;37.03;;
21729;SDS011;11027;51.030;13.812;2022-08-20T11:30:57;49.85;;;36.50;;
21729;SDS011;11027;51.030;13.812;2022-08-20T11:33:22;51.88;;;37.97;;
21729;SDS011;11027;51.030;13.812;2022-08-20T11:35:48;48.83;;;36.58;;
21729;SDS011;11027;51.030;13.812;2022-08-20T11:38:13;48.10;;;37.17;;
21729;SDS011;11027;51.030;13.812;2022-08-20T11:40:41;51.33;;;36.70;;
21729;SDS011;11027;51.030;13.812;2022-08-20T11:43:06;52.63;;;39.17;;
21729;SDS011;11027;51.030;13.812;2022-08-20T11:45:31;50.50;;;38.10;;
21729;SDS011;11027;51.030;13.812;2022-08-20T11:47:57;55.88;;;39.80;;
21729;SDS011;11027;51.030;13.812;2022-08-20T11:50:22;55.40;;;39.38;;
21729;SDS011;11027;51.030;13.812;2022-08-20T11:52:47;58.80;;;39.85;;
21729;SDS011;11027;51.030;13.812;2022-08-20T11:55:14;53.85;;;37.75;;
21729;SDS011;11027;51.030;13.812;2022-08-20T11:57:41;52.20;;;37.85;;
21729;SDS011;11027;51.030;13.812;2022-08-20T12:00:11;56.28;;;40.10;;
21729;SDS011;11027;51.030;13.812;2022-08-20T12:02:40;52.90;;;39.95;;
21729;SDS011;11027;51.030;13.812;2022-08-20T12:05:06;50.70;;;38.35;;
21729;SDS011;11027;51.030;13.812;2022-08-20T12:07:32;49.53;;;37.90;;
21729;SDS011;11027;51.030;13.812;2022-08-20T12:09:58;58.03;;;41.05;;
21729;SDS011;11027;51.030;13.812;2022-08-20T12:12:23;57.15;;;41.67;;
21729;SDS011;11027;51.030;13.812;2022-08-20T12:14:52;55.05;;;40.70;;
21729;SDS011;11027;51.030;13.812;2022-08-20T12:17:20;54.85;;;39.40;;
21729;SDS011;11027;51.030;13.812;2022-08-20T12:19:51;57.72;;;40.85;;
21729;SDS011;11027;51.030;13.812;2022-08-20T12:22:18;54.85;;;40.25;;
21729;SDS011;11027;51.030;13.812;2022-08-20T12:24:43;47.40;;;37.10;;
21729;SDS011;11027;51.030;13.812;2022-08-20T12:27:18;54.00;;;39.10;;
21729;SDS011;11027;51.030;13.812;2022-08-20T12:29:45;56.42;;;40.33;;
21729;SDS011;11027;51.030;13.812;2022-08-20T12:32:12;57.75;;;40.90;;
21729;SDS011;11027;51.030;13.812;2022-08-20T12:34:38;53.15;;;38.85;;
21729;SDS011;11027;51.030;13.812;2022-08-20T12:37:12;54.42;;;38.45;;
21729;SDS011;11027;51.030;13.812;2022-08-20T12:39:41;50.05;;;38.50;;
21729;SDS011;11027;51.030;13.812;2022-08-20T12:42:09;50.10;;;36.45;;
21729;SDS011;11027;51.030;13.812;2022-08-20T12:44:35;45.00;;;36.03;;
21729;SDS011;11027;51.030;13.812;2022-08-20T12:47:09;50.22;;;36.88;;
21729;SDS011;11027;51.030;13.812;2022-08-20T12:49:50;42.75;;;33.00;;
21729;SDS011;11027;51.030;13.812;2022-08-20T12:52:17;44.30;;;33.72;;
21729;SDS011;11027;51.030;13.812;2022-08-20T12:54:44;44.88;;;34.28;;
21729;SDS011;11027;51.030;13.812;2022-08-20T12:57:23;44.00;;;35.10;;
21729;SDS011;11027;51.030;13.812;2022-08-20T12:59:52;42.22;;;32.50;;
21729;SDS011;11027;51.030;13.812;2022-08-20T13:02:19;39.47;;;31.63;;
21729;SDS011;11027;51.030;13.812;2022-08-20T13:04:44;37.28;;;31.92;;
21729;SDS011;11027;51.030;13.812;2022-08-20T13:07:10;40.40;;;32.13;;
21729;SDS011;11027;51.030;13.812;2022-08-20T13:09:36;38.15;;;31.52;;
21729;SDS011;11027;51.030;13.812;2022-08-20T13:12:02;38.25;;;31.83;;
21729;SDS011;11027;51.030;13.812;2022-08-20T13:14:28;39.63;;;30.85;;
21729;SDS011;11027;51.030;13.812;2022-08-20T13:16:57;38.70;;;31.58;;
21729;SDS011;11027;51.030;13.812;2022-08-20T13:19:24;35.13;;;29.73;;
21729;SDS011;11027;51.030;13.812;2022-08-20T13:21:50;36.15;;;30.80;;
21729;SDS011;11027;51.030;13.812;2022-08-20T13:24:15;41.13;;;31.05;;
21729;SDS011;11027;51.030;13.812;2022-08-20T13:26:41;37.50;;;31.15;;
21729;SDS011;11027;51.030;13.812;2022-08-20T13:29:06;39.03;;;31.45;;
21729;SDS011;11027;51.030;13.812;2022-08-20T13:31:32;37.53;;;30.05;;
21729;SDS011;11027;51.030;13.812;2022-08-20T13:33:57;37.13;;;29.25;;
21729;SDS011;11027;51.030;13.812;2022-08-20T13:36:23;35.83;;;29.70;;
21729;SDS011;11027;51.030;13.812;2022-08-20T13:38:48;32.85;;;27.35;;
21729;SDS011;11027;51.030;13.812;2022-08-20T13:41:13;32.42;;;28.10;;
21729;SDS011;11027;51.030;13.812;2022-08-20T13:43:39;37.25;;;29.38;;
21729;SDS011;11027;51.030;13.812;2022-08-20T13:46:04;35.92;;;27.77;;
21729;SDS011;11027;51.030;13.812;2022-08-20T13:48:30;34.08;;;27.88;;
21729;SDS011;11027;51.030;13.812;2022-08-20T13:50:56;26.77;;;23.00;;
21729;SDS011;11027;51.030;13.812;2022-08-20T13:53:21;22.50;;;19.13;;
21729;SDS011;11027;51.030;13.812;2022-08-20T13:55:46;25.10;;;22.08;;
21729;SDS011;11027;51.030;13.812;2022-08-20T13:58:12;22.83;;;19.42;;
21729;SDS011;11027;51.030;13.812;2022-08-20T14:00:37;21.95;;;19.65;;
21729;SDS011;11027;51.030;13.812;2022-08-20T14:03:03;23.58;;;21.08;;
21729;SDS011;11027;51.030;13.812;2022-08-20T14:05:30;24.50;;;21.67;;
21729;SDS011;11027;51.030;13.812;2022-08-20T14:08:10;22.15;;;19.88;;
21729;SDS011;11027;51.030;13.812;2022-08-20T14:10:43;21.40;;;19.20;;
21729;SDS011;11027;51.030;13.812;2022-08-20T14:13:09;21.27;;;18.27;;
21729;SDS011;11027;51.030;13.812;2022-08-20T14:15:35;19.75;;;17.52;;
21729;SDS011;11027;51.030;13.812;2022-08-20T14:18:01;22.60;;;17.35;;
21729;SDS011;11027;51.030;13.812;2022-08-20T14:20:28;19.17;;;17.10;;
21729;SDS011;11027;51.030;13.812;2022-08-20T14:22:55;17.45;;;15.75;;
21729;SDS011;11027;51.030;13.812;2022-08-20T14:25:22;12.07;;;10.75;;